Brier Hill, NY (13614)

1:21 PM EST on February 07, 2016 (GMT -0500)
St. Lawrence River shoreline | | Change Station
CLOSE
Current Station
Personal Weather Station
Location: Brockville, ONTARIO
Elevation: 285 ft
Nearby Weather Stations

Elev 285 ft 44.54 °N, 75.76 °W | Updated 3 minutes ago

Overcast
Overcast
33.8 °F
Feels Like 34 °F
N
2.0
Wind Variable Wind from NW
Gusts 4.0 mph

Today
High -- | Low -- °F
--% Chance of Precip.
Yesterday
High -- | Low -- °F
Precip. -- in
Pressure 30.07 in
Visibility 10.0 miles
Clouds Mostly Cloudy 2900 ft
Overcast 3800 ft
Windchill 34 °F
Dew Point 29 °F
Humidity 82%
Rainfall 0.00 in
Snow Depth Not available.
7:14 AM 5:19 PM
Waning Crescent, 1% visible
METAR KGTB 071758Z AUTO 20005KT 10SM BKN029 OVC038 03/M04 A3005 RMK AO2 CIG 029V038 SLP183 T00261037 10030 20000 58008
Pressure 30.07 in
Visibility 10.0 miles
Clouds Mostly Cloudy 2900 ft
Overcast 3800 ft
Windchill 34 °F
Dew Point 29 °F
Humidity 82%
Rainfall 0.00 in
Snow Depth Not available.
7:14 AM 5:19 PM
Waning Crescent, 1% visible
METAR KGTB 071758Z AUTO 20005KT 10SM BKN029 OVC038 03/M04 A3005 RMK AO2 CIG 029V038 SLP183 T00261037 10030 20000 58008

10-Day Weather Forecast

Almanac

Astronomy

Feb. 07, 2016 Rise Set
Actual Time
Civil Twilight
Nautical Twilight
Astronomical Twilight
Moon
Length of Visible Light
Length of Day
Tomorrow will be .
, % of the Moon is Illuminated

Today's Extremes

State Highs State Lows

Community

WunderPhotos

Upload Photos

1,891,276 photos uploaded!

WunderBlog® & News

Nearby

Air Quality

  Air Quality AQ Index Pollutant
Not available.

Snow Depth

Station Depth Elevation

Earthquake Activity

City Distance Mag. Time & Date
Minimum magnitude displayed is 2.5.

Coastal Water Temperatures

Place Temperature

Stations

Nearby Weather Stations

Station Location Temp. Windchill Dew Point Humidity Wind Precip. Elev Updated Type
                   

Watches & Warnings

There are currently no watches in effect.